Terminal Aerodrome Forecast
Issued by NWS Tuscon, AZ

Home | Current Version | Previous Version | Text Only | Print | Product List | Glossary On
Versions: 1 2 3 4 5 6 7 8 9 10 11 12 13
000
FTUS45 KTWC 300500
TAFDUG
TAF
KDUG 300538Z 3006/3106 11013KT P6SM -SHRA SCT035 OVC050
     FM301500 11010KT P6SM -SHRA SCT020 OVC035
     FM310200 10008KT P6SM -SHRA SCT015 OVC025=

USA.gov is the U.S. government's official web portal to all federal, state and local government web resources and services.